Main page
METAR-TAF:

METAR-TAF

Airports :

Santander Airport

Santander, Spain

latitude: 43-26N, longitude: 003-49W, elevation: 6 m

Current weather observation

The report was made 21 minutes ago, at 18:30 UTC
Wind 7 kt from the Southwest, varying between South and West
Temperature 16°C
Humidity 55%
Pressure 1011 hPa
Visibility 10 km or more
Scattered clouds at a height of 8200 ft

METAR: LEXJ 271830Z 22007KT 170V270 9999 SCT082 16/07 Q1011

Time: 19:51 (18:51 UTC)

Forecast

The report was made 4 hours and 51 minutes ago, at 14:00 UTC
Forecast valid from 27 at 15 UTC to 28 at 15 UTC
Wind 8 kt from the South/Southwest
Visibility 10 km or more
Broken clouds at a height of 4000 ft
Temporary
from 27 at 21 UTC to 28 at 03 UTC
Visibility: 3000 m
Broken clouds at a height of 1400 ft
rain

TAF: LEXJ 271400Z 2715/2815 20008KT 9999 BKN040 TX14/2715Z TN08/2807Z TEMPO 2721/2803 3000 RA BKN014

Weather observations and forecasts of more than 4000 airports (METAR and TAF reports).

The available stations are represented by yellow and red dots on the map.

Hover mouse over dot to see the name of the station.

Then click to see weather observations and forecasts.

To change the map : click on the green buttons with a black cross to zoom in, on the green button with a dash to zoom out, or on the green arrows for adjacent maps.


METAR-TAF: